Time;durP1;ratioP1;P1;durP2;ratioP2;P2;SDS_P1;SDS_P2;PMS_P1;PMS_P2;Temp;Humidity;BMP_temperature;BMP_pressure;BME280_temperature;BME280_humidity;BME280_pressure;Samples;Min_cycle;Max_cycle;Signal;HPM_P1;HPM_P2
2022/01/25 00:09:59;;;;;;;42.90;38.33;;;;;;;;;;5077787;28;20413;-84
2022/01/25 00:15:17;;;;;;;43.75;39.15;;;;;;;;;;5072905;28;20192;-84
2022/01/25 00:26:15;;;;;;;46.97;39.15;;;;;;;;;;5072953;28;20309;-84
2022/01/25 00:28:48;;;;;;;44.85;39.25;;;;;;;;;;5075099;28;20732;-84
2022/01/25 00:31:17;;;;;;;45.65;39.83;;;;;;;;;;5076734;28;20745;-83
2022/01/25 00:33:45;;;;;;;46.30;39.63;;;;;;;;;;5076343;28;20644;-84
2022/01/25 00:36:13;;;;;;;44.35;39.53;;;;;;;;;;5076068;28;20694;-83
2022/01/25 00:38:41;;;;;;;44.10;39.45;;;;;;;;;;5076154;28;20644;-83
2022/01/25 00:41:08;;;;;;;49.28;39.65;;;;;;;;;;5076155;28;20202;-84
2022/01/25 00:43:36;;;;;;;46.28;40.25;;;;;;;;;;5076127;28;20210;-82
2022/01/25 00:46:08;;;;;;;43.17;38.88;;;;;;;;;;5075820;28;20200;-83
2022/01/25 00:48:43;;;;;;;44.65;39.58;;;;;;;;;;5076075;28;20281;-82
2022/01/25 00:51:24;;;;;;;43.00;38.50;;;;;;;;;;5076086;28;20282;-84
2022/01/25 00:53:57;;;;;;;43.40;38.90;;;;;;;;;;5076757;28;20212;-84
2022/01/25 00:56:25;;;;;;;44.47;39.72;;;;;;;;;;5076416;28;20213;-84
2022/01/25 00:58:53;;;;;;;43.42;38.70;;;;;;;;;;5077545;28;20222;-84
2022/01/25 01:01:22;;;;;;;42.97;38.47;;;;;;;;;;5077283;28;20247;-84
2022/01/25 01:03:50;;;;;;;46.58;38.00;;;;;;;;;;5076449;28;20711;-84
2022/01/25 01:06:17;;;;;;;44.90;40.15;;;;;;;;;;5076434;28;20185;-84
2022/01/25 01:08:45;;;;;;;45.53;40.63;;;;;;;;;;5082009;28;20186;-84
2022/01/25 01:30:39;;;;;;;45.78;40.45;;;;;;;;;;5076743;28;20192;-84
2022/01/25 01:41:59;;;;;;;44.47;39.35;;;;;;;;;;5033854;28;20707;-84
2022/01/25 01:44:28;;;;;;;43.93;39.23;;;;;;;;;;5035774;28;20214;-84
2022/01/25 01:47:07;;;;;;;45.10;40.55;;;;;;;;;;5033477;28;20454;-83
2022/01/25 01:49:43;;;;;;;44.50;39.70;;;;;;;;;;5033768;28;20286;-84
2022/01/25 01:52:12;;;;;;;44.78;39.97;;;;;;;;;;5033116;28;20203;-84
2022/01/25 01:54:39;;;;;;;46.17;40.33;;;;;;;;;;5032915;28;20650;-84
2022/01/25 01:57:08;;;;;;;44.70;39.85;;;;;;;;;;5032711;28;20216;-83
2022/01/25 01:59:36;;;;;;;44.40;39.53;;;;;;;;;;5032864;28;20246;-84
2022/01/25 02:02:04;;;;;;;45.03;40.30;;;;;;;;;;5032844;28;20550;-83
2022/01/25 02:04:31;;;;;;;47.22;42.13;;;;;;;;;;5032556;28;20624;-84
2022/01/25 02:07:00;;;;;;;48.42;40.70;;;;;;;;;;5032859;28;20243;-84
2022/01/25 02:09:28;;;;;;;44.97;40.17;;;;;;;;;;5032380;28;20214;-84
2022/01/25 02:11:55;;;;;;;43.85;39.15;;;;;;;;;;5042968;28;20254;-84
2022/01/25 02:14:23;;;;;;;46.22;41.22;;;;;;;;;;5074545;28;20263;-84
2022/01/25 02:17:09;;;;;;;45.10;40.30;;;;;;;;;;5075580;28;20237;-83
2022/01/25 02:22:34;;;;;;;46.33;39.28;;;;;;;;;;5076171;28;20197;-84
2022/01/25 02:25:02;;;;;;;46.05;41.15;;;;;;;;;;5076347;28;20283;-84
2022/01/25 02:27:30;;;;;;;46.83;41.42;;;;;;;;;;5075225;28;20244;-84
2022/01/25 02:29:57;;;;;;;45.60;40.40;;;;;;;;;;5074537;28;20252;-84
2022/01/25 02:32:24;;;;;;;46.17;40.30;;;;;;;;;;5074713;28;20190;-84
2022/01/25 02:34:52;;;;;;;43.75;39.10;;;;;;;;;;5075069;28;20208;-83
2022/01/25 02:37:19;;;;;;;47.85;40.60;;;;;;;;;;5075343;28;20221;-84
2022/01/25 02:39:48;;;;;;;43.13;38.70;;;;;;;;;;5075303;28;20197;-83
2022/01/25 02:42:17;;;;;;;44.95;40.28;;;;;;;;;;5075202;28;20201;-84
2022/01/25 02:44:45;;;;;;;51.30;40.65;;;;;;;;;;5074641;28;20293;-83
2022/01/25 02:50:12;;;;;;;55.40;43.08;;;;;;;;;;5034564;28;20264;-83
2022/01/25 02:52:40;;;;;;;43.03;38.22;;;;;;;;;;5042231;28;20194;-84
2022/01/25 02:55:09;;;;;;;44.63;39.65;;;;;;;;;;5032635;28;20290;-84
2022/01/25 02:57:36;;;;;;;44.10;39.30;;;;;;;;;;5032504;28;20761;-83
2022/01/25 03:00:06;;;;;;;42.95;38.50;;;;;;;;;;5032125;28;20222;-84
2022/01/25 03:02:33;;;;;;;41.25;36.88;;;;;;;;;;5031893;28;20215;-83
2022/01/25 03:05:01;;;;;;;41.83;37.30;;;;;;;;;;5031941;28;20207;-84
2022/01/25 03:07:28;;;;;;;44.67;39.88;;;;;;;;;;5031837;28;20206;-84
2022/01/25 03:09:58;;;;;;;40.83;36.47;;;;;;;;;;5031956;28;20285;-84
2022/01/25 03:12:35;;;;;;;44.85;39.95;;;;;;;;;;5032099;28;20204;-84
2022/01/25 03:15:23;;;;;;;44.33;38.80;;;;;;;;;;5032437;28;20197;-84
2022/01/25 03:17:55;;;;;;;42.05;37.75;;;;;;;;;;5031706;28;21186;-84
2022/01/25 03:20:34;;;;;;;42.42;37.97;;;;;;;;;;5040454;28;20207;-82
2022/01/25 03:23:16;;;;;;;43.78;38.60;;;;;;;;;;5058398;28;20212;-84
2022/01/25 03:25:43;;;;;;;44.53;39.72;;;;;;;;;;5074420;28;20199;-84
2022/01/25 03:28:12;;;;;;;43.45;38.95;;;;;;;;;;5073733;28;20209;-84
2022/01/25 03:30:40;;;;;;;42.60;37.83;;;;;;;;;;5073702;28;20192;-84
2022/01/25 03:33:07;;;;;;;44.50;39.58;;;;;;;;;;5073665;28;20189;-84
2022/01/25 03:35:34;;;;;;;45.42;40.47;;;;;;;;;;5073531;28;20190;-83
2022/01/25 03:38:02;;;;;;;42.85;38.30;;;;;;;;;;5073130;28;20209;-83
2022/01/25 03:40:29;;;;;;;40.83;36.60;;;;;;;;;;5073077;28;20210;-84
2022/01/25 03:42:59;;;;;;;42.83;38.42;;;;;;;;;;5073379;28;20212;-84
2022/01/25 03:45:31;;;;;;;43.35;38.80;;;;;;;;;;5073047;28;20708;-84
2022/01/25 03:49:48;;;;;;;42.80;38.03;;;;;;;;;;5073264;28;20199;-83
2022/01/25 03:50:47;;;;;;;42.72;38.35;;;;;;;;;;5075132;28;20658;-84
2022/01/25 03:53:14;;;;;;;42.03;37.75;;;;;;;;;;5073010;28;20193;-84
2022/01/25 03:55:42;;;;;;;46.33;38.55;;;;;;;;;;5073448;28;20201;-84
2022/01/25 03:58:10;;;;;;;42.38;37.85;;;;;;;;;;5072925;28;20216;-84
2022/01/25 04:00:39;;;;;;;42.63;38.22;;;;;;;;;;5072990;28;20560;-84
2022/01/25 04:03:13;;;;;;;40.90;36.45;;;;;;;;;;5074459;28;20302;-84
2022/01/25 04:05:49;;;;;;;43.90;39.22;;;;;;;;;;5077347;28;20198;-84
2022/01/25 04:08:17;;;;;;;43.78;39.28;;;;;;;;;;5076806;28;20218;-84
2022/01/25 04:10:44;;;;;;;41.75;37.20;;;;;;;;;;5077238;28;20206;-84
2022/01/25 04:13:12;;;;;;;43.30;38.30;;;;;;;;;;5077121;28;20198;-84
2022/01/25 04:15:44;;;;;;;45.92;38.70;;;;;;;;;;5077554;28;20193;-84
2022/01/25 04:18:27;;;;;;;42.35;37.78;;;;;;;;;;5076998;28;20264;-82
2022/01/25 04:21:04;;;;;;;44.20;39.50;;;;;;;;;;5076817;28;20224;-83
2022/01/25 04:26:17;;;;;;;41.53;37.03;;;;;;;;;;5076617;28;20248;-83
2022/01/25 04:28:44;;;;;;;47.70;40.00;;;;;;;;;;5076682;28;20642;-84
2022/01/25 04:31:16;;;;;;;44.72;39.53;;;;;;;;;;5076546;28;20189;-84
2022/01/25 04:33:55;;;;;;;45.55;40.55;;;;;;;;;;5076606;28;20205;-82
2022/01/25 04:36:52;;;;;;;42.97;38.47;;;;;;;;;;5077653;28;20207;-84
2022/01/25 04:50:40;;;;;;;44.70;39.85;;;;;;;;;;5016014;28;20561;-83
2022/01/25 04:53:14;;;;;;;43.17;38.67;;;;;;;;;;5014712;28;20206;-84
2022/01/25 04:55:47;;;;;;;44.42;39.58;;;;;;;;;;5014301;28;20231;-84
2022/01/25 04:58:21;;;;;;;43.97;39.25;;;;;;;;;;5013726;28;20243;-84
2022/01/25 05:00:49;;;;;;;42.42;37.55;;;;;;;;;;5014671;28;20266;-83
2022/01/25 05:03:24;;;;;;;45.40;39.95;;;;;;;;;;5014367;28;20322;-84
2022/01/25 05:05:58;;;;;;;48.20;40.60;;;;;;;;;;5014137;28;20559;-85
2022/01/25 05:08:34;;;;;;;48.13;41.22;;;;;;;;;;5014021;28;20241;-84
2022/01/25 05:11:07;;;;;;;44.03;38.78;;;;;;;;;;5014002;28;20640;-84
2022/01/25 05:13:44;;;;;;;42.20;37.65;;;;;;;;;;5013335;28;20205;-83
2022/01/25 05:16:26;;;;;;;45.63;39.30;;;;;;;;;;5010809;28;20237;-83
2022/01/25 05:19:04;;;;;;;41.67;37.35;;;;;;;;;;5038101;28;20229;-84
2022/01/25 05:24:16;;;;;;;43.97;38.28;;;;;;;;;;5057868;28;20201;-83
2022/01/25 05:26:44;;;;;;;42.92;37.95;;;;;;;;;;5055692;28;20205;-84
2022/01/25 05:29:11;;;;;;;44.65;38.28;;;;;;;;;;5055649;28;20209;-84
2022/01/25 05:31:39;;;;;;;43.47;38.85;;;;;;;;;;5056941;28;20651;-83
2022/01/25 05:34:08;;;;;;;46.85;40.75;;;;;;;;;;5055642;28;20190;-84
2022/01/25 05:36:36;;;;;;;45.13;39.88;;;;;;;;;;5055627;28;20226;-84
2022/01/25 05:39:09;;;;;;;45.10;40.33;;;;;;;;;;5055618;28;20218;-84
2022/01/25 05:41:37;;;;;;;45.83;40.00;;;;;;;;;;5056732;28;20199;-84
2022/01/25 05:44:23;;;;;;;52.35;41.72;;;;;;;;;;5057835;28;20197;-83
2022/01/25 05:47:04;;;;;;;50.63;43.05;;;;;;;;;;5055853;28;20190;-83
2022/01/25 05:49:33;;;;;;;46.00;38.83;;;;;;;;;;5057159;28;20286;-83
2022/01/25 05:52:01;;;;;;;49.90;41.67;;;;;;;;;;5056062;28;20222;-83
2022/01/25 05:54:28;;;;;;;49.00;40.72;;;;;;;;;;5056072;28;20614;-83
2022/01/25 05:56:55;;;;;;;49.15;41.22;;;;;;;;;;5057864;28;20210;-83
2022/01/25 05:59:23;;;;;;;46.58;40.53;;;;;;;;;;5055645;28;20222;-83
2022/01/25 06:01:50;;;;;;;49.47;41.33;;;;;;;;;;5055066;28;20187;-83
2022/01/25 06:04:18;;;;;;;44.63;39.80;;;;;;;;;;5072087;28;20229;-83
2022/01/25 06:06:47;;;;;;;48.83;41.42;;;;;;;;;;5075522;28;20190;-83
2022/01/25 06:09:14;;;;;;;44.42;39.40;;;;;;;;;;5057852;28;20205;-83
2022/01/25 06:11:41;;;;;;;44.03;39.28;;;;;;;;;;5057921;28;20708;-82
2022/01/25 06:14:18;;;;;;;48.90;40.88;;;;;;;;;;5057732;28;20197;-84
2022/01/25 06:16:45;;;;;;;45.58;40.15;;;;;;;;;;5075433;28;20202;-83
2022/01/25 06:19:12;;;;;;;48.28;39.40;;;;;;;;;;5076845;28;20236;-83
2022/01/25 06:21:40;;;;;;;45.47;39.80;;;;;;;;;;5077021;28;20191;-83
2022/01/25 06:24:09;;;;;;;48.03;40.17;;;;;;;;;;5078523;28;20325;-83
2022/01/25 06:26:36;;;;;;;49.20;40.63;;;;;;;;;;5078725;28;20210;-83
2022/01/25 06:29:04;;;;;;;50.10;44.22;;;;;;;;;;5081570;28;20186;-83
2022/01/25 06:31:31;;;;;;;50.40;41.05;;;;;;;;;;5077618;28;20193;-84
2022/01/25 06:33:59;;;;;;;45.47;40.58;;;;;;;;;;5074293;28;20295;-83
2022/01/25 06:36:26;;;;;;;50.25;40.53;;;;;;;;;;5074125;28;20194;-82
2022/01/25 06:38:54;;;;;;;48.13;41.50;;;;;;;;;;5074305;28;20213;-83
2022/01/25 06:41:22;;;;;;;50.38;43.47;;;;;;;;;;5074566;28;20196;-83
2022/01/25 06:43:50;;;;;;;51.63;42.10;;;;;;;;;;5074608;28;20201;-83
2022/01/25 06:46:17;;;;;;;50.83;42.08;;;;;;;;;;5074155;28;20191;-83
2022/01/25 06:48:45;;;;;;;50.50;38.53;;;;;;;;;;5074903;28;20190;-84
2022/01/25 06:51:12;;;;;;;50.03;42.15;;;;;;;;;;5074396;28;20196;-82
2022/01/25 06:53:39;;;;;;;48.00;40.40;;;;;;;;;;5074162;28;20197;-83
2022/01/25 06:56:07;;;;;;;50.95;41.40;;;;;;;;;;5073992;28;20615;-83
2022/01/25 06:58:36;;;;;;;50.78;42.05;;;;;;;;;;5074091;28;20564;-83
2022/01/25 07:01:04;;;;;;;48.15;41.83;;;;;;;;;;5076718;28;20584;-83
2022/01/25 07:03:31;;;;;;;52.45;41.97;;;;;;;;;;5074237;28;20225;-83
2022/01/25 07:05:58;;;;;;;50.80;41.88;;;;;;;;;;5076213;28;20185;-83
2022/01/25 07:08:26;;;;;;;56.72;46.90;;;;;;;;;;5075869;28;20199;-83
2022/01/25 07:10:53;;;;;;;62.80;46.10;;;;;;;;;;5075769;28;20193;-84
2022/01/25 07:13:20;;;;;;;52.65;42.40;;;;;;;;;;5075805;28;20195;-84
2022/01/25 07:15:49;;;;;;;55.85;43.28;;;;;;;;;;5075100;28;20571;-83
2022/01/25 07:18:18;;;;;;;55.20;43.92;;;;;;;;;;5075635;28;20251;-83
2022/01/25 07:20:46;;;;;;;56.85;43.65;;;;;;;;;;5058575;28;20271;-84
2022/01/25 07:23:13;;;;;;;59.03;47.05;;;;;;;;;;5075299;28;20609;-84
2022/01/25 07:25:40;;;;;;;59.28;46.58;;;;;;;;;;5076003;28;20608;-83
2022/01/25 07:28:08;;;;;;;64.75;46.53;;;;;;;;;;5075764;28;20191;-84
2022/01/25 07:30:35;;;;;;;63.47;47.35;;;;;;;;;;5057455;28;20192;-84
2022/01/25 07:33:05;;;;;;;54.70;44.90;;;;;;;;;;5076756;28;20200;-84
2022/01/25 07:35:33;;;;;;;59.58;44.67;;;;;;;;;;5074100;28;20205;-84
2022/01/25 07:38:01;;;;;;;60.38;46.58;;;;;;;;;;5072499;28;20217;-83
2022/01/25 07:40:28;;;;;;;55.83;44.60;;;;;;;;;;5073175;28;20362;-84
2022/01/25 07:42:56;;;;;;;60.97;47.42;;;;;;;;;;5072947;28;20189;-83
2022/01/25 07:45:24;;;;;;;59.58;47.03;;;;;;;;;;5072754;28;20187;-83
2022/01/25 07:47:51;;;;;;;57.17;46.38;;;;;;;;;;5072707;28;20201;-81
2022/01/25 07:50:20;;;;;;;61.65;46.92;;;;;;;;;;5072686;28;20197;-83
2022/01/25 07:52:48;;;;;;;59.38;46.22;;;;;;;;;;5072771;28;20197;-83
2022/01/25 07:55:15;;;;;;;55.60;43.42;;;;;;;;;;5072698;28;20192;-83
2022/01/25 07:57:43;;;;;;;61.45;47.97;;;;;;;;;;5072955;28;20198;-84
2022/01/25 08:00:11;;;;;;;57.40;47.53;;;;;;;;;;5072484;28;20223;-84
2022/01/25 08:02:39;;;;;;;60.28;45.25;;;;;;;;;;5072633;28;20245;-83
2022/01/25 08:05:06;;;;;;;55.58;45.28;;;;;;;;;;5072823;28;20215;-83
2022/01/25 08:07:35;;;;;;;61.78;48.33;;;;;;;;;;5072873;28;20201;-84
2022/01/25 08:10:03;;;;;;;58.00;47.17;;;;;;;;;;5072493;28;20181;-83
2022/01/25 08:12:30;;;;;;;58.10;47.03;;;;;;;;;;5072446;28;20193;-83
2022/01/25 08:14:59;;;;;;;63.75;48.78;;;;;;;;;;5072359;28;20200;-82
2022/01/25 08:17:26;;;;;;;60.47;46.35;;;;;;;;;;5072468;28;20258;-82
2022/01/25 08:19:53;;;;;;;60.10;45.55;;;;;;;;;;5072664;28;20231;-82
2022/01/25 08:22:21;;;;;;;59.88;47.20;;;;;;;;;;5072531;28;20201;-82
2022/01/25 08:24:50;;;;;;;64.13;48.83;;;;;;;;;;5072250;28;20186;-81
2022/01/25 08:27:20;;;;;;;60.90;49.85;;;;;;;;;;5072249;28;20195;-82
2022/01/25 08:29:47;;;;;;;62.72;48.50;;;;;;;;;;5072484;28;20635;-83
2022/01/25 08:32:15;;;;;;;61.05;46.08;;;;;;;;;;5072437;28;20189;-84
2022/01/25 08:34:42;;;;;;;60.33;45.53;;;;;;;;;;5072583;28;20194;-83
2022/01/25 08:37:09;;;;;;;62.33;48.35;;;;;;;;;;5072950;28;20531;-83
2022/01/25 08:39:37;;;;;;;61.30;46.75;;;;;;;;;;5072463;28;20217;-83
2022/01/25 08:42:06;;;;;;;54.55;44.75;;;;;;;;;;5072372;28;20201;-84
2022/01/25 08:44:33;;;;;;;59.30;46.72;;;;;;;;;;5072368;28;20193;-83
2022/01/25 08:47:01;;;;;;;64.78;49.30;;;;;;;;;;5072408;28;20261;-83
2022/01/25 08:49:30;;;;;;;59.28;46.67;;;;;;;;;;5074688;28;20188;-84
2022/01/25 08:51:57;;;;;;;63.25;46.78;;;;;;;;;;5075985;28;20202;-83
2022/01/25 08:54:25;;;;;;;65.07;48.78;;;;;;;;;;5076186;28;20529;-84
2022/01/25 08:56:53;;;;;;;57.55;46.80;;;;;;;;;;5075755;28;20202;-84
2022/01/25 08:59:22;;;;;;;60.13;47.97;;;;;;;;;;5075626;28;20640;-84
2022/01/25 09:01:49;;;;;;;59.83;47.08;;;;;;;;;;5075647;28;20190;-84
2022/01/25 09:04:17;;;;;;;57.67;44.97;;;;;;;;;;5075419;28;20232;-83
2022/01/25 09:06:44;;;;;;;62.92;47.17;;;;;;;;;;5075596;28;20200;-83
2022/01/25 09:09:12;;;;;;;59.22;47.10;;;;;;;;;;5075898;28;20223;-84
2022/01/25 09:11:40;;;;;;;60.50;45.00;;;;;;;;;;5075812;28;20200;-86
2022/01/25 09:14:08;;;;;;;57.63;45.63;;;;;;;;;;5074986;28;20189;-81
2022/01/25 09:16:37;;;;;;;63.42;49.47;;;;;;;;;;5075039;28;20190;-84
2022/01/25 09:19:05;;;;;;;62.95;47.05;;;;;;;;;;5075673;28;20221;-83
2022/01/25 09:21:32;;;;;;;62.95;48.60;;;;;;;;;;5075538;28;20193;-83
2022/01/25 09:23:59;;;;;;;63.83;46.67;;;;;;;;;;5075226;28;20273;-83
2022/01/25 09:26:27;;;;;;;54.10;44.55;;;;;;;;;;5075280;28;20197;-83
2022/01/25 09:28:55;;;;;;;61.25;46.75;;;;;;;;;;5075379;28;20194;-83
2022/01/25 09:31:22;;;;;;;61.85;48.03;;;;;;;;;;5075153;28;20643;-83
2022/01/25 09:33:51;;;;;;;61.38;46.83;;;;;;;;;;5075270;28;20673;-83
2022/01/25 09:36:19;;;;;;;61.05;47.78;;;;;;;;;;5075150;28;20219;-83
2022/01/25 09:38:46;;;;;;;62.75;46.55;;;;;;;;;;5074876;28;20216;-83
2022/01/25 09:41:14;;;;;;;61.80;46.28;;;;;;;;;;5074894;28;20196;-83
2022/01/25 09:43:41;;;;;;;60.50;44.70;;;;;;;;;;5075281;28;20232;-83
2022/01/25 09:46:08;;;;;;;59.95;45.47;;;;;;;;;;5074700;28;20185;-83
2022/01/25 09:48:36;;;;;;;62.67;47.97;;;;;;;;;;5075087;28;20612;-82
2022/01/25 09:51:05;;;;;;;61.70;48.75;;;;;;;;;;5074691;28;20194;-83
2022/01/25 09:53:33;;;;;;;56.03;44.45;;;;;;;;;;5075181;28;20198;-83
2022/01/25 09:56:00;;;;;;;62.65;46.05;;;;;;;;;;5074634;28;20194;-83
2022/01/25 09:58:28;;;;;;;62.13;49.28;;;;;;;;;;5074643;28;20296;-83
2022/01/25 10:00:57;;;;;;;54.88;45.17;;;;;;;;;;5073914;28;20200;-83
2022/01/25 10:03:29;;;;;;;56.42;44.35;;;;;;;;;;5074558;28;20235;-83
2022/01/25 10:06:00;;;;;;;60.38;44.80;;;;;;;;;;5074562;28;20196;-82
2022/01/25 10:08:31;;;;;;;56.35;44.65;;;;;;;;;;5074371;28;20659;-82
2022/01/25 10:10:59;;;;;;;53.25;42.10;;;;;;;;;;5074237;28;20248;-83
2022/01/25 10:13:27;;;;;;;55.97;43.08;;;;;;;;;;5074757;28;20204;-82
2022/01/25 10:16:01;;;;;;;51.55;38.65;;;;;;;;;;5074030;28;20195;-83
2022/01/25 10:18:37;;;;;;;52.45;40.60;;;;;;;;;;5074338;28;20704;-83
2022/01/25 10:21:04;;;;;;;55.90;43.90;;;;;;;;;;5074694;28;20196;-84
2022/01/25 10:23:35;;;;;;;52.67;41.15;;;;;;;;;;5074508;28;20648;-83
2022/01/25 10:26:03;;;;;;;54.45;41.83;;;;;;;;;;5073857;28;20653;-84
2022/01/25 10:28:31;;;;;;;56.17;43.55;;;;;;;;;;5074025;28;20197;-84
2022/01/25 10:31:00;;;;;;;55.60;43.63;;;;;;;;;;5074131;28;20192;-84
2022/01/25 10:33:32;;;;;;;53.88;42.70;;;;;;;;;;5074132;28;20189;-84
2022/01/25 10:36:00;;;;;;;55.13;43.63;;;;;;;;;;5074281;28;20194;-84
2022/01/25 10:38:29;;;;;;;56.05;42.60;;;;;;;;;;5074138;28;20190;-84
2022/01/25 10:41:06;;;;;;;49.67;42.38;;;;;;;;;;5074180;28;20190;-84
2022/01/25 10:43:34;;;;;;;50.80;43.42;;;;;;;;;;5073942;28;20208;-84
2022/01/25 10:46:09;;;;;;;47.30;38.90;;;;;;;;;;5073712;28;20610;-84
2022/01/25 10:48:36;;;;;;;44.97;39.47;;;;;;;;;;5074059;28;20199;-85
2022/01/25 10:51:05;;;;;;;53.72;42.28;;;;;;;;;;5073988;28;20643;-84
2022/01/25 10:53:32;;;;;;;50.25;41.58;;;;;;;;;;5073684;28;20198;-84
2022/01/25 10:56:00;;;;;;;51.90;41.13;;;;;;;;;;5073869;28;20196;-84
2022/01/25 10:58:29;;;;;;;48.47;39.65;;;;;;;;;;5073623;28;20232;-83
2022/01/25 11:00:58;;;;;;;41.30;36.03;;;;;;;;;;5073567;28;20687;-83
2022/01/25 11:03:27;;;;;;;51.75;40.83;;;;;;;;;;5073353;28;20770;-84
2022/01/25 11:05:54;;;;;;;49.63;38.25;;;;;;;;;;5073420;28;20297;-83
2022/01/25 11:08:24;;;;;;;52.97;41.53;;;;;;;;;;5073403;28;20678;-84
2022/01/25 11:10:55;;;;;;;56.63;40.38;;;;;;;;;;5073649;28;20208;-83
2022/01/25 11:13:35;;;;;;;48.95;42.30;;;;;;;;;;5072684;28;20217;-84
2022/01/25 11:16:05;;;;;;;54.35;43.30;;;;;;;;;;5073226;28;20281;-84
2022/01/25 11:18:32;;;;;;;48.05;41.13;;;;;;;;;;5073608;28;20225;-84
2022/01/25 11:21:00;;;;;;;54.25;40.50;;;;;;;;;;5073379;28;20218;-84
2022/01/25 11:23:28;;;;;;;48.30;40.38;;;;;;;;;;5073256;28;20214;-84
2022/01/25 11:25:56;;;;;;;47.42;41.08;;;;;;;;;;5073300;28;20224;-84
2022/01/25 11:28:24;;;;;;;51.88;42.10;;;;;;;;;;5073434;28;20623;-83
2022/01/25 11:30:52;;;;;;;57.00;42.03;;;;;;;;;;5073250;28;20281;-84
2022/01/25 11:33:21;;;;;;;51.97;41.50;;;;;;;;;;5073408;28;20189;-85
2022/01/25 11:35:49;;;;;;;46.33;41.15;;;;;;;;;;5072828;28;20220;-83
2022/01/25 11:38:17;;;;;;;49.45;40.58;;;;;;;;;;5073449;28;20677;-84
2022/01/25 11:40:47;;;;;;;52.00;42.70;;;;;;;;;;5072797;28;20633;-84
2022/01/25 11:43:15;;;;;;;50.60;41.55;;;;;;;;;;5073276;28;20215;-83
2022/01/25 11:45:44;;;;;;;46.13;39.50;;;;;;;;;;5072878;28;20194;-83
2022/01/25 11:48:11;;;;;;;47.10;39.60;;;;;;;;;;5072903;28;20212;-83
2022/01/25 11:50:41;;;;;;;42.05;37.55;;;;;;;;;;5073230;28;20196;-84
2022/01/25 11:53:10;;;;;;;42.47;36.17;;;;;;;;;;5073145;28;20263;-84
2022/01/25 11:55:38;;;;;;;40.83;36.30;;;;;;;;;;5073044;28;20201;-83
2022/01/25 11:58:06;;;;;;;48.83;38.72;;;;;;;;;;5073012;28;20221;-84
2022/01/25 12:00:39;;;;;;;43.70;37.67;;;;;;;;;;5073043;28;20218;-84
2022/01/25 12:03:20;;;;;;;44.05;39.25;;;;;;;;;;5072675;28;20594;-84
2022/01/25 12:05:56;;;;;;;44.67;39.17;;;;;;;;;;5072951;28;20200;-84
2022/01/25 12:08:28;;;;;;;49.30;40.67;;;;;;;;;;5073010;28;20194;-84
2022/01/25 12:11:05;;;;;;;48.25;38.38;;;;;;;;;;5072993;28;20204;-84
2022/01/25 12:13:33;;;;;;;38.83;34.72;;;;;;;;;;5072525;28;20736;-81
2022/01/25 12:16:19;;;;;;;39.25;35.08;;;;;;;;;;5072733;28;20599;-84
2022/01/25 12:18:58;;;;;;;39.63;35.13;;;;;;;;;;5073051;28;20254;-84
2022/01/25 12:21:55;;;;;;;38.72;34.58;;;;;;;;;;5072440;28;20230;-84
2022/01/25 12:24:29;;;;;;;40.42;35.40;;;;;;;;;;4993644;28;20207;-83
2022/01/25 12:27:00;;;;;;;39.22;34.97;;;;;;;;;;4995159;28;20216;-83
2022/01/25 12:29:31;;;;;;;43.42;35.83;;;;;;;;;;4995088;28;20344;-84
2022/01/25 12:32:13;;;;;;;41.45;36.95;;;;;;;;;;4995080;28;20207;-84
2022/01/25 12:34:56;;;;;;;42.80;37.20;;;;;;;;;;4995008;28;20213;-83
2022/01/25 12:37:38;;;;;;;42.33;36.70;;;;;;;;;;4995093;28;20203;-84
2022/01/25 12:40:25;;;;;;;41.13;35.95;;;;;;;;;;4994231;28;20233;-84
2022/01/25 12:42:55;;;;;;;40.50;35.80;;;;;;;;;;4970744;28;20307;-84
2022/01/25 12:45:23;;;;;;;41.17;36.67;;;;;;;;;;4994754;28;20247;-84
2022/01/25 12:47:52;;;;;;;41.35;35.85;;;;;;;;;;4994775;28;20557;-84
2022/01/25 12:50:19;;;;;;;40.83;35.08;;;;;;;;;;4995213;28;20203;-84
2022/01/25 12:52:47;;;;;;;44.75;36.20;;;;;;;;;;4994878;28;20209;-84
2022/01/25 12:55:14;;;;;;;42.53;35.80;;;;;;;;;;4994619;28;20195;-84
2022/01/25 12:57:46;;;;;;;44.10;38.30;;;;;;;;;;5007308;28;20286;-83
2022/01/25 13:00:16;;;;;;;39.30;35.17;;;;;;;;;;5075813;28;20241;-83
2022/01/25 13:02:44;;;;;;;39.22;34.88;;;;;;;;;;5076064;28;20236;-86
2022/01/25 13:05:18;;;;;;;40.47;36.08;;;;;;;;;;5076298;28;20190;-87
2022/01/25 13:07:45;;;;;;;41.63;35.50;;;;;;;;;;5076275;28;20230;-86
2022/01/25 13:10:24;;;;;;;42.63;36.58;;;;;;;;;;5075906;28;20663;-85
2022/01/25 13:12:59;;;;;;;48.08;35.53;;;;;;;;;;5076132;28;20209;-86
2022/01/25 13:15:50;;;;;;;42.97;36.10;;;;;;;;;;5076227;28;20201;-92
2022/01/25 13:18:17;;;;;;;39.40;35.08;;;;;;;;;;5076777;28;20245;-85
2022/01/25 13:20:48;;;;;;;41.42;35.58;;;;;;;;;;5075709;28;20232;-85
2022/01/25 13:23:17;;;;;;;39.25;33.80;;;;;;;;;;5075705;28;20295;-85
2022/01/25 13:25:54;;;;;;;39.53;34.92;;;;;;;;;;5075699;28;20209;-85
2022/01/25 13:28:34;;;;;;;43.05;35.75;;;;;;;;;;5060165;28;20191;-85
2022/01/25 13:31:07;;;;;;;40.05;33.92;;;;;;;;;;5075826;28;20206;-86
2022/01/25 13:33:34;;;;;;;40.17;35.10;;;;;;;;;;5074990;28;20189;-85
2022/01/25 13:36:03;;;;;;;39.58;33.85;;;;;;;;;;5074945;28;20216;-85
2022/01/25 13:38:31;;;;;;;41.22;35.90;;;;;;;;;;5075709;28;20207;-85
2022/01/25 13:41:08;;;;;;;38.88;34.67;;;;;;;;;;5075219;28;20612;-85
2022/01/25 13:46:24;;;;;;;38.90;34.67;;;;;;;;;;5075466;28;20201;-85
2022/01/25 13:48:54;;;;;;;38.47;34.47;;;;;;;;;;5074952;28;20205;-85
2022/01/25 13:51:22;;;;;;;40.67;36.47;;;;;;;;;;5075750;28;20198;-85
2022/01/25 13:53:53;;;;;;;40.53;35.20;;;;;;;;;;5075300;28;20197;-85
2022/01/25 13:56:21;;;;;;;38.03;33.95;;;;;;;;;;5075252;28;20724;-85
2022/01/25 13:58:49;;;;;;;39.78;34.78;;;;;;;;;;5074873;28;20257;-85
2022/01/25 14:01:18;;;;;;;41.45;33.88;;;;;;;;;;5074772;28;20224;-85
2022/01/25 14:03:52;;;;;;;38.63;34.65;;;;;;;;;;5074805;28;20240;-85
2022/01/25 14:06:21;;;;;;;39.15;35.08;;;;;;;;;;5075113;28;20204;-85
2022/01/25 14:08:48;;;;;;;39.13;34.50;;;;;;;;;;5075076;28;20197;-85
2022/01/25 14:11:27;;;;;;;38.63;34.53;;;;;;;;;;5075045;28;20233;-85
2022/01/25 14:24:53;;;;;;;39.15;34.90;;;;;;;;;;5072391;28;20201;-84
2022/01/25 14:27:23;;;;;;;42.17;37.63;;;;;;;;;;5074513;28;20197;-85
2022/01/25 14:29:52;;;;;;;40.45;35.78;;;;;;;;;;5074323;28;20647;-85
2022/01/25 14:32:28;;;;;;;38.72;34.72;;;;;;;;;;5074487;28;20296;-85
2022/01/25 14:35:05;;;;;;;39.13;34.00;;;;;;;;;;5074265;28;20218;-84
2022/01/25 14:37:32;;;;;;;39.88;35.45;;;;;;;;;;5074363;28;20203;-85
2022/01/25 14:40:07;;;;;;;42.22;37.80;;;;;;;;;;5073908;28;20217;-92
2022/01/25 14:42:34;;;;;;;40.38;36.00;;;;;;;;;;5074661;28;20200;-92
2022/01/25 14:45:02;;;;;;;41.30;36.83;;;;;;;;;;5074760;28;20255;-92
2022/01/25 14:47:37;;;;;;;41.83;37.30;;;;;;;;;;5074714;28;20668;-92
2022/01/25 14:50:08;;;;;;;40.80;36.47;;;;;;;;;;5074961;28;20287;-89
2022/01/25 14:52:35;;;;;;;42.85;37.33;;;;;;;;;;5074748;28;20231;-92
2022/01/25 14:55:02;;;;;;;40.53;36.13;;;;;;;;;;5075285;28;20209;-92
2022/01/25 14:57:40;;;;;;;39.95;34.88;;;;;;;;;;5074668;28;20224;-89
2022/01/25 15:00:08;;;;;;;42.25;36.42;;;;;;;;;;5073814;28;20217;-85
2022/01/25 15:02:36;;;;;;;42.10;35.90;;;;;;;;;;5056141;28;20198;-85
2022/01/25 15:05:03;;;;;;;41.95;37.33;;;;;;;;;;5073996;28;20426;-85
2022/01/25 15:07:34;;;;;;;43.65;37.63;;;;;;;;;;5073269;28;20213;-88
2022/01/25 15:10:04;;;;;;;40.63;35.00;;;;;;;;;;5073234;28;20295;-88
2022/01/25 15:12:37;;;;;;;41.15;36.75;;;;;;;;;;5074066;28;20207;-88
2022/01/25 15:15:09;;;;;;;43.38;37.05;;;;;;;;;;5074384;28;20204;-87
2022/01/25 15:17:36;;;;;;;41.53;36.83;;;;;;;;;;5074400;28;20213;-87
2022/01/25 15:20:05;;;;;;;42.75;37.90;;;;;;;;;;5074889;28;20196;-90
2022/01/25 15:22:35;;;;;;;41.22;36.70;;;;;;;;;;5056020;28;20238;-84
2022/01/25 15:25:02;;;;;;;44.85;38.90;;;;;;;;;;5073945;28;20194;-91
2022/01/25 15:27:31;;;;;;;46.20;39.38;;;;;;;;;;5073866;28;20230;-86
2022/01/25 15:29:59;;;;;;;42.55;37.97;;;;;;;;;;5073667;28;20185;-85
2022/01/25 15:32:26;;;;;;;42.53;37.22;;;;;;;;;;5074046;28;20535;-90
2022/01/25 15:34:54;;;;;;;43.70;35.15;;;;;;;;;;5074101;28;20603;-89
2022/01/25 15:37:21;;;;;;;41.72;37.33;;;;;;;;;;5074040;28;20223;-88
2022/01/25 15:39:50;;;;;;;46.45;39.05;;;;;;;;;;5073622;28;20187;-88
2022/01/25 15:42:19;;;;;;;39.97;35.63;;;;;;;;;;5073483;28;20217;-88
2022/01/25 15:44:49;;;;;;;43.30;37.55;;;;;;;;;;5055557;28;20258;-83
2022/01/25 15:47:19;;;;;;;43.50;38.22;;;;;;;;;;5072829;28;20205;-85
2022/01/25 15:49:46;;;;;;;45.38;36.97;;;;;;;;;;5073089;28;20208;-87
2022/01/25 15:52:15;;;;;;;40.70;36.30;;;;;;;;;;5073274;28;20205;-86
2022/01/25 15:54:42;;;;;;;44.85;36.53;;;;;;;;;;5073208;28;20202;-84
2022/01/25 15:57:12;;;;;;;49.58;39.03;;;;;;;;;;5073253;28;20229;-83